createdAt,value
2018-09-08T00:00:02.239Z,100.00
2018-09-08T00:02:30.432Z,100.00
2018-09-08T00:04:58.608Z,100.00
2018-09-08T00:07:32.117Z,100.00
2018-09-08T00:10:00.480Z,100.00
2018-09-08T00:12:28.907Z,100.00
2018-09-08T00:14:56.272Z,100.00
2018-09-08T00:17:29.742Z,100.00
2018-09-08T00:20:03.912Z,100.00
2018-09-08T00:22:37.360Z,100.00
2018-09-08T00:25:10.921Z,100.00
2018-09-08T00:27:45.327Z,100.00
2018-09-08T00:30:14.482Z,100.00
2018-09-08T00:32:42.686Z,100.00
2018-09-08T00:35:11.854Z,100.00
2018-09-08T00:37:40.470Z,100.00
2018-09-08T00:40:08.702Z,100.00
2018-09-08T00:42:37.222Z,100.00
2018-09-08T00:45:06.011Z,100.00
2018-09-08T00:47:34.467Z,100.00
2018-09-08T00:50:02.661Z,100.00
2018-09-08T00:52:31.109Z,100.00
2018-09-08T00:54:59.295Z,100.00
2018-09-08T00:57:27.553Z,100.00
2018-09-08T00:59:55.741Z,100.00
2018-09-08T01:02:23.913Z,100.00
2018-09-08T01:04:52.401Z,100.00
2018-09-08T01:07:26.048Z,100.00
2018-09-08T01:09:56.796Z,100.00
2018-09-08T01:12:24.978Z,100.00
2018-09-08T01:14:53.254Z,100.00
2018-09-08T01:17:21.476Z,100.00
2018-09-08T01:19:49.654Z,100.00
2018-09-08T01:22:18.090Z,100.00
2018-09-08T01:24:46.408Z,100.00
2018-09-08T01:27:14.596Z,100.00
2018-09-08T01:29:43.107Z,100.00
2018-09-08T01:32:11.600Z,100.00
2018-09-08T01:34:39.828Z,100.00
2018-09-08T01:37:08.113Z,100.00
2018-09-08T01:39:36.574Z,100.00
2018-09-08T01:42:04.743Z,100.00
2018-09-08T01:44:32.938Z,100.00
2018-09-08T01:47:01.189Z,100.00
2018-09-08T01:49:29.449Z,100.00
2018-09-08T01:51:57.661Z,100.00
2018-09-08T01:54:25.845Z,100.00
2018-09-08T01:56:54.045Z,100.00
2018-09-08T01:59:22.445Z,100.00
2018-09-08T02:01:50.766Z,100.00
2018-09-08T02:04:19.029Z,100.00
2018-09-08T02:06:47.361Z,100.00
2018-09-08T02:09:15.585Z,100.00
2018-09-08T02:11:43.849Z,100.00
2018-09-08T02:14:12.029Z,100.00
2018-09-08T02:16:40.525Z,100.00
2018-09-08T02:19:08.720Z,100.00
2018-09-08T02:21:36.966Z,100.00
2018-09-08T02:24:05.154Z,100.00
2018-09-08T02:26:33.408Z,100.00
2018-09-08T02:29:01.599Z,100.00
2018-09-08T02:31:29.793Z,100.00
2018-09-08T02:33:58.468Z,100.00
2018-09-08T02:36:26.647Z,100.00
2018-09-08T02:38:54.829Z,100.00
2018-09-08T02:41:23.020Z,100.00
2018-09-08T02:43:51.391Z,100.00
2018-09-08T02:46:19.626Z,100.00
2018-09-08T02:48:47.929Z,100.00
2018-09-08T02:51:15.072Z,100.00
2018-09-08T02:53:42.171Z,100.00
2018-09-08T02:56:09.274Z,100.00
2018-09-08T02:58:36.398Z,100.00
2018-09-08T03:01:03.511Z,100.00
2018-09-08T03:03:30.618Z,100.00
2018-09-08T03:05:57.754Z,100.00
2018-09-08T03:08:24.865Z,100.00
2018-09-08T03:10:51.981Z,100.00
2018-09-08T03:13:19.105Z,100.00
2018-09-08T03:15:46.221Z,100.00
2018-09-08T03:18:13.325Z,100.00
2018-09-08T03:20:40.457Z,100.00
2018-09-08T03:23:07.581Z,100.00
2018-09-08T03:25:34.699Z,100.00
2018-09-08T03:28:01.830Z,100.00
2018-09-08T03:30:28.945Z,100.00
2018-09-08T03:32:56.048Z,100.00
2018-09-08T03:35:24.130Z,100.00
2018-09-08T03:37:51.228Z,100.00
2018-09-08T03:40:18.340Z,100.00
2018-09-08T03:42:45.460Z,100.00
2018-09-08T03:45:12.825Z,100.00
2018-09-08T03:47:39.942Z,100.00
2018-09-08T03:50:07.897Z,100.00
2018-09-08T03:52:35.014Z,100.00
2018-09-08T03:55:02.118Z,100.00
2018-09-08T03:57:29.267Z,100.00
2018-09-08T03:59:56.365Z,100.00
2018-09-08T04:02:23.473Z,100.00
2018-09-08T04:04:51.675Z,100.00
2018-09-08T04:07:19.878Z,100.00
2018-09-08T04:09:48.068Z,100.00
2018-09-08T04:12:16.341Z,100.00
2018-09-08T04:14:44.924Z,100.00
2018-09-08T04:17:13.101Z,100.00
2018-09-08T04:19:41.293Z,100.00
2018-09-08T04:22:09.475Z,100.00
2018-09-08T04:24:37.657Z,100.00
2018-09-08T04:27:05.992Z,100.00
2018-09-08T04:29:34.204Z,100.00
2018-09-08T04:32:02.427Z,100.00
2018-09-08T04:34:30.640Z,100.00
2018-09-08T04:36:58.884Z,100.00
2018-09-08T04:39:27.256Z,100.00
2018-09-08T04:41:55.453Z,100.00
2018-09-08T04:44:23.724Z,100.00
2018-09-08T04:46:51.906Z,100.00
2018-09-08T04:49:20.207Z,100.00
2018-09-08T04:51:48.446Z,100.00
2018-09-08T04:54:16.638Z,100.00
2018-09-08T04:56:44.903Z,100.00
2018-09-08T04:59:13.094Z,100.00
2018-09-08T05:01:41.298Z,100.00
2018-09-08T05:04:09.498Z,100.00
2018-09-08T05:06:37.681Z,100.00
2018-09-08T05:09:08.829Z,100.00
2018-09-08T05:11:37.006Z,100.00
2018-09-08T05:14:05.367Z,100.00
2018-09-08T05:16:33.812Z,100.00
2018-09-08T05:19:02.040Z,100.00
2018-09-08T05:21:30.323Z,100.00
2018-09-08T05:23:58.742Z,100.00
2018-09-08T05:26:26.897Z,100.00
2018-09-08T05:28:55.173Z,100.00
2018-09-08T05:31:23.430Z,100.00
2018-09-08T05:33:51.609Z,100.00
2018-09-08T05:36:19.945Z,100.00
2018-09-08T05:38:48.157Z,100.00
2018-09-08T05:41:16.344Z,100.00
2018-09-08T05:43:44.543Z,100.00
2018-09-08T05:46:12.727Z,100.00
2018-09-08T05:48:40.962Z,100.00
2018-09-08T05:51:09.322Z,100.00
2018-09-08T05:53:37.574Z,100.00
2018-09-08T05:56:06.465Z,100.00
2018-09-08T05:58:34.709Z,100.00
2018-09-08T06:01:02.842Z,100.00
2018-09-08T06:03:31.004Z,100.00
2018-09-08T06:05:59.185Z,100.00
2018-09-08T06:08:27.468Z,100.00
2018-09-08T06:10:55.730Z,100.00
2018-09-08T06:13:23.918Z,100.00
2018-09-08T06:15:52.204Z,100.00
2018-09-08T06:18:20.435Z,100.00
2018-09-08T06:20:48.548Z,100.00
2018-09-08T06:23:16.728Z,100.00
2018-09-08T06:25:44.895Z,100.00
2018-09-08T06:28:13.073Z,100.00
2018-09-08T06:30:41.357Z,100.00
2018-09-08T06:33:10.122Z,100.00
2018-09-08T06:35:38.718Z,100.00
2018-09-08T06:38:07.093Z,100.00
2018-09-08T06:40:35.521Z,100.00
2018-09-08T06:43:03.681Z,100.00
2018-09-08T06:45:31.981Z,100.00
2018-09-08T06:48:00.147Z,100.00
2018-09-08T06:50:28.371Z,100.00
2018-09-08T06:52:57.015Z,100.00
2018-09-08T06:55:25.221Z,100.00
2018-09-08T06:57:53.434Z,100.00
2018-09-08T07:00:21.723Z,100.00
2018-09-08T07:02:50.163Z,100.00
2018-09-08T07:05:18.904Z,100.00
2018-09-08T07:07:47.086Z,100.00
2018-09-08T07:10:15.298Z,100.00
2018-09-08T07:12:43.562Z,100.00
2018-09-08T07:15:12.111Z,100.00
2018-09-08T07:17:40.320Z,100.00
2018-09-08T07:20:08.658Z,100.00
2018-09-08T07:22:37.088Z,100.00
2018-09-08T07:25:06.388Z,100.00
2018-09-08T07:27:34.606Z,100.00
2018-09-08T07:30:02.844Z,100.00
2018-09-08T07:32:31.038Z,100.00
2018-09-08T07:34:59.281Z,100.00
2018-09-08T07:37:27.652Z,100.00
2018-09-08T07:39:55.833Z,100.00
2018-09-08T07:42:24.009Z,100.00
2018-09-08T07:44:52.413Z,100.00
2018-09-08T07:47:20.665Z,100.00
2018-09-08T07:49:48.848Z,100.00
2018-09-08T07:52:17.137Z,100.00
2018-09-08T07:54:45.321Z,100.00
2018-09-08T07:57:14.041Z,100.00
2018-09-08T07:59:42.274Z,100.00
2018-09-08T08:02:10.512Z,100.00
2018-09-08T08:04:38.705Z,100.00
2018-09-08T08:07:11.046Z,100.00
2018-09-08T08:09:39.216Z,100.00
2018-09-08T08:12:08.160Z,100.00
2018-09-08T08:14:37.066Z,100.00
2018-09-08T08:17:05.188Z,100.00
2018-09-08T08:19:34.366Z,100.00
2018-09-08T08:22:02.643Z,100.00
2018-09-08T08:24:30.856Z,100.00
2018-09-08T08:26:59.782Z,100.00
2018-09-08T08:29:27.969Z,100.00
2018-09-08T08:31:56.450Z,100.00
2018-09-08T08:34:24.885Z,100.00
2018-09-08T08:36:53.077Z,100.00
2018-09-08T08:39:21.381Z,100.00
2018-09-08T08:41:49.730Z,100.00
2018-09-08T08:44:17.913Z,100.00
2018-09-08T08:46:46.089Z,100.00
2018-09-08T08:49:14.297Z,100.00
2018-09-08T08:51:53.781Z,100.00
2018-09-08T08:54:27.288Z,100.00
2018-09-08T08:56:55.568Z,100.00
2018-09-08T08:59:23.884Z,100.00
2018-09-08T09:01:52.284Z,100.00
2018-09-08T09:04:20.498Z,100.00
2018-09-08T09:06:48.748Z,100.00
2018-09-08T09:09:16.937Z,100.00
2018-09-08T09:11:45.637Z,100.00
2018-09-08T09:14:14.247Z,100.00
2018-09-08T09:16:42.633Z,100.00
2018-09-08T09:19:33.546Z,100.00
2018-09-08T09:22:13.906Z,100.00
2018-09-08T09:24:53.336Z,100.00
2018-09-08T09:27:21.512Z,100.00
2018-09-08T09:29:49.730Z,100.00
2018-09-08T09:32:18.047Z,100.00
2018-09-08T09:34:46.228Z,100.00
2018-09-08T09:37:14.452Z,100.00
2018-09-08T09:39:42.656Z,100.00
2018-09-08T09:42:11.254Z,95.46
2018-09-08T09:44:39.535Z,98.21
2018-09-08T09:47:07.773Z,94.82
2018-09-08T09:49:36.051Z,88.01
2018-09-08T09:52:04.236Z,98.25
2018-09-08T09:54:32.413Z,98.00
2018-09-08T09:57:00.669Z,98.08
2018-09-08T09:59:28.833Z,91.71
2018-09-08T10:02:03.256Z,84.17
2018-09-08T10:04:31.517Z,83.42
2018-09-08T10:06:59.668Z,81.45
2018-09-08T10:09:28.599Z,76.84
2018-09-08T10:11:56.795Z,78.81
2018-09-08T10:14:25.228Z,73.19
2018-09-08T10:16:53.416Z,74.31
2018-09-08T10:19:21.690Z,73.54
2018-09-08T10:21:49.966Z,67.64
2018-09-08T10:24:18.156Z,70.01
2018-09-08T10:26:46.319Z,69.83
2018-09-08T10:29:14.494Z,80.56
2018-09-08T10:31:42.782Z,83.97
2018-09-08T10:34:11.062Z,84.21
2018-09-08T10:36:39.338Z,76.74
2018-09-08T10:39:08.226Z,67.45
2018-09-08T10:41:36.520Z,65.63
2018-09-08T10:44:04.761Z,64.11
2018-09-08T10:46:32.963Z,68.75
2018-09-08T10:49:01.135Z,68.70
2018-09-08T10:52:09.597Z,40.37
2018-09-08T10:54:38.039Z,36.14
2018-09-08T10:57:06.447Z,44.65
2018-09-08T10:59:34.615Z,52.74
2018-09-08T11:02:02.915Z,52.36
2018-09-08T11:04:31.281Z,42.84
2018-09-08T11:06:59.545Z,48.42
2018-09-08T11:09:28.033Z,38.07
2018-09-08T11:11:56.301Z,26.87
2018-09-08T11:14:24.533Z,39.10
2018-09-08T11:16:52.793Z,45.26
2018-09-08T11:19:21.240Z,47.19
2018-09-08T11:21:49.424Z,54.43
2018-09-08T11:24:17.619Z,57.17
2018-09-08T11:26:45.983Z,38.32
2018-09-08T11:29:14.205Z,48.60
2018-09-08T11:31:42.454Z,48.91
2018-09-08T11:34:10.740Z,52.13
2018-09-08T11:36:39.107Z,60.07
2018-09-08T11:39:07.955Z,56.06
2018-09-08T11:41:37.156Z,53.13
2018-09-08T11:44:05.632Z,35.20
2018-09-08T11:46:34.213Z,41.28
2018-09-08T11:49:02.385Z,44.07
2018-09-08T11:51:30.782Z,46.37
2018-09-08T11:53:59.242Z,42.11
2018-09-08T11:56:27.470Z,20.78
2018-09-08T11:58:55.680Z,17.26
2018-09-08T12:01:23.894Z,18.24
2018-09-08T12:03:52.080Z,16.59
2018-09-08T12:06:20.293Z,14.91
2018-09-08T12:08:48.541Z,13.39
2018-09-08T12:11:16.817Z,13.98
2018-09-08T12:13:45.119Z,14.31
2018-09-08T12:16:13.301Z,15.13
2018-09-08T12:18:41.533Z,13.76
2018-09-08T12:21:09.747Z,17.98
2018-09-08T12:23:39.353Z,15.56
2018-09-08T12:26:07.973Z,25.53
2018-09-08T12:28:36.203Z,29.19
2018-09-08T12:31:04.426Z,17.09
2018-09-08T12:33:32.629Z,16.25
2018-09-08T12:36:00.825Z,17.23
2018-09-08T12:38:29.025Z,14.10
2018-09-08T12:40:57.186Z,11.94
2018-09-08T12:43:25.676Z,13.53
2018-09-08T12:45:54.278Z,11.61
2018-09-08T12:48:22.545Z,12.63
2018-09-08T12:50:50.794Z,16.45
2018-09-08T12:53:19.379Z,21.47
2018-09-08T12:55:47.739Z,16.36
2018-09-08T12:58:16.022Z,15.13
2018-09-08T13:00:44.296Z,13.76
2018-09-08T13:03:12.463Z,18.20
2018-09-08T13:05:40.949Z,14.23
2018-09-08T13:08:09.433Z,17.44
2018-09-08T13:10:37.685Z,15.49
2018-09-08T13:13:05.995Z,11.80
2018-09-08T13:15:34.238Z,23.80
2018-09-08T13:18:02.433Z,22.51
2018-09-08T13:20:30.721Z,15.71
2018-09-08T13:22:59.035Z,13.30
2018-09-08T13:25:27.199Z,12.29
2018-09-08T13:27:55.571Z,16.92
2018-09-08T13:30:23.797Z,28.21
2018-09-08T13:32:52.072Z,27.24
2018-09-08T13:35:21.767Z,27.62
2018-09-08T13:37:49.924Z,20.93
2018-09-08T13:40:18.127Z,15.33
2018-09-08T13:42:46.354Z,25.20
2018-09-08T13:45:14.552Z,18.10
2018-09-08T13:47:42.725Z,18.47
2018-09-08T13:50:11.048Z,18.38
2018-09-08T13:52:39.898Z,22.25
2018-09-08T13:55:08.068Z,25.36
2018-09-08T13:57:36.286Z,25.90
2018-09-08T14:00:06.074Z,23.33
2018-09-08T14:02:34.360Z,21.49
2018-09-08T14:05:02.796Z,16.17
2018-09-08T14:07:30.994Z,16.18
2018-09-08T14:09:59.188Z,17.11
2018-09-08T14:12:27.853Z,17.49
2018-09-08T14:14:56.038Z,13.98
2018-09-08T14:17:25.026Z,14.82
2018-09-08T14:19:53.535Z,16.44
2018-09-08T14:22:21.805Z,13.95
2018-09-08T14:24:49.981Z,16.21
2018-09-08T14:27:18.181Z,14.29
2018-09-08T14:29:46.423Z,13.98
2018-09-08T14:32:14.613Z,14.46
2018-09-08T14:34:42.895Z,21.98
2018-09-08T14:37:11.098Z,17.58
2018-09-08T14:39:39.281Z,15.70
2018-09-08T14:42:07.503Z,14.93
2018-09-08T14:44:35.695Z,15.51
2018-09-08T14:47:03.868Z,16.04
2018-09-08T14:49:32.213Z,26.34
2018-09-08T14:52:00.398Z,25.92
2018-09-08T14:54:28.652Z,28.01
2018-09-08T14:56:56.875Z,28.01
2018-09-08T14:59:25.122Z,29.71
2018-09-08T15:01:53.384Z,31.64
2018-09-08T15:04:21.586Z,32.51
2018-09-08T15:06:49.800Z,32.65
2018-09-08T15:09:17.958Z,35.65
2018-09-08T15:11:46.508Z,35.40
2018-09-08T15:14:14.693Z,36.15
2018-09-08T15:16:43.137Z,38.08
2018-09-08T15:19:11.447Z,40.21
2018-09-08T15:21:39.625Z,38.06
2018-09-08T15:24:07.873Z,39.26
2018-09-08T15:26:36.251Z,39.78
2018-09-08T15:29:04.439Z,40.79
2018-09-08T15:31:32.617Z,40.88
2018-09-08T15:34:00.887Z,41.66
2018-09-08T15:36:29.160Z,42.04
2018-09-08T15:38:57.356Z,42.82
2018-09-08T15:41:25.536Z,43.75
2018-09-08T15:43:53.785Z,41.93
2018-09-08T15:46:22.044Z,41.01
2018-09-08T15:48:50.259Z,43.03
2018-09-08T15:51:18.445Z,42.20
2018-09-08T15:53:46.688Z,42.70
2018-09-08T15:56:15.133Z,44.60
2018-09-08T15:58:43.361Z,44.25
2018-09-08T16:01:11.711Z,44.88
2018-09-08T16:03:39.915Z,45.45
2018-09-08T16:06:08.218Z,45.26
2018-09-08T16:08:36.388Z,46.51
2018-09-08T16:11:04.644Z,46.35
2018-09-08T16:13:32.811Z,47.81
2018-09-08T16:16:00.986Z,47.06
2018-09-08T16:18:29.180Z,48.77
2018-09-08T16:20:57.349Z,50.21
2018-09-08T16:23:25.596Z,50.00
2018-09-08T16:25:53.890Z,51.08
2018-09-08T16:28:22.138Z,52.13
2018-09-08T16:30:50.626Z,53.29
2018-09-08T16:33:19.118Z,52.46
2018-09-08T16:35:47.294Z,54.94
2018-09-08T16:38:15.545Z,56.87
2018-09-08T16:40:43.731Z,56.53
2018-09-08T16:43:11.989Z,56.46
2018-09-08T16:45:40.159Z,57.22
2018-09-08T16:48:08.341Z,59.25
2018-09-08T16:50:36.513Z,60.81
2018-09-08T16:53:04.677Z,62.46
2018-09-08T16:55:33.145Z,63.11
2018-09-08T16:58:01.311Z,63.43
2018-09-08T17:00:29.556Z,65.42
2018-09-08T17:02:57.820Z,67.31
2018-09-08T17:05:26.060Z,68.39
2018-09-08T17:07:54.214Z,70.28
2018-09-08T17:10:22.908Z,71.84
2018-09-08T17:12:51.164Z,71.46
2018-09-08T17:15:19.382Z,73.36
2018-09-08T17:17:47.578Z,76.08
2018-09-08T17:20:15.766Z,78.47
2018-09-08T17:22:44.270Z,80.55
2018-09-08T17:25:12.425Z,82.68
2018-09-08T17:27:40.670Z,83.64
2018-09-08T17:30:08.904Z,86.32
2018-09-08T17:32:37.173Z,96.05
2018-09-08T17:35:07.665Z,97.34
2018-09-08T17:37:35.918Z,99.67
2018-09-08T17:40:04.137Z,100.00
2018-09-08T17:42:32.318Z,100.00
2018-09-08T17:45:00.541Z,100.00
2018-09-08T17:47:28.749Z,100.00
2018-09-08T17:49:57.005Z,100.00
2018-09-08T17:52:25.212Z,100.00
2018-09-08T17:54:53.543Z,100.00
2018-09-08T17:57:21.803Z,100.00
2018-09-08T17:59:49.981Z,100.00
2018-09-08T18:02:18.179Z,100.00
2018-09-08T18:04:46.365Z,100.00
2018-09-08T18:07:16.121Z,100.00
2018-09-08T18:09:44.300Z,100.00
2018-09-08T18:12:12.508Z,100.00
2018-09-08T18:14:40.852Z,100.00
2018-09-08T18:17:09.075Z,100.00
2018-09-08T18:19:37.596Z,100.00
2018-09-08T18:22:05.805Z,100.00
2018-09-08T18:24:33.999Z,100.00
2018-09-08T18:27:02.153Z,100.00
2018-09-08T18:29:30.319Z,100.00
2018-09-08T18:31:58.522Z,100.00
2018-09-08T18:34:26.711Z,100.00
2018-09-08T18:36:54.900Z,100.00
2018-09-08T18:39:23.186Z,100.00
2018-09-08T18:41:51.388Z,100.00
2018-09-08T18:44:19.670Z,100.00
2018-09-08T18:46:47.886Z,100.00
2018-09-08T18:49:16.147Z,100.00
2018-09-08T18:51:44.322Z,100.00
2018-09-08T18:54:12.517Z,100.00
2018-09-08T18:56:40.781Z,100.00
2018-09-08T18:59:08.989Z,100.00
2018-09-08T19:01:37.230Z,100.00
2018-09-08T19:04:05.625Z,100.00
2018-09-08T19:06:33.875Z,100.00
2018-09-08T19:09:02.163Z,100.00
2018-09-08T19:11:30.355Z,100.00
2018-09-08T19:13:58.601Z,100.00
2018-09-08T19:16:26.792Z,100.00
2018-09-08T19:18:55.065Z,100.00
2018-09-08T19:21:23.254Z,100.00
2018-09-08T19:23:56.834Z,100.00
2018-09-08T19:26:25.118Z,100.00
2018-09-08T19:28:58.700Z,100.00
2018-09-08T19:31:26.893Z,100.00
2018-09-08T19:33:55.378Z,100.00
2018-09-08T19:36:23.623Z,100.00
2018-09-08T19:38:51.814Z,100.00
2018-09-08T19:41:20.006Z,100.00
2018-09-08T19:43:48.289Z,100.00
2018-09-08T19:46:22.008Z,100.00
2018-09-08T19:48:50.215Z,100.00
2018-09-08T19:51:18.429Z,100.00
2018-09-08T19:53:52.068Z,100.00
2018-09-08T19:56:24.458Z,100.00
2018-09-08T19:58:56.056Z,100.00
2018-09-08T20:01:24.270Z,100.00
2018-09-08T20:03:52.671Z,100.00
2018-09-08T20:06:21.299Z,100.00
2018-09-08T20:08:49.492Z,100.00
2018-09-08T20:11:17.737Z,100.00
2018-09-08T20:13:46.136Z,100.00
2018-09-08T20:16:14.331Z,100.00
2018-09-08T20:18:42.597Z,100.00
2018-09-08T20:21:10.865Z,100.00
2018-09-08T20:23:39.137Z,100.00
2018-09-08T20:26:07.652Z,100.00
2018-09-08T20:28:36.124Z,100.00
2018-09-08T20:31:04.353Z,100.00
2018-09-08T20:33:32.988Z,100.00
2018-09-08T20:36:01.534Z,100.00
2018-09-08T20:38:29.903Z,100.00
2018-09-08T20:40:58.190Z,100.00
2018-09-08T20:43:26.370Z,100.00
2018-09-08T20:45:54.562Z,100.00
2018-09-08T20:48:23.165Z,100.00
2018-09-08T20:50:51.406Z,100.00
2018-09-08T20:53:19.935Z,100.00
2018-09-08T20:55:48.135Z,100.00
2018-09-08T20:58:16.430Z,100.00
2018-09-08T21:00:44.696Z,100.00
2018-09-08T21:03:12.890Z,100.00
2018-09-08T21:05:41.102Z,100.00
2018-09-08T21:08:09.317Z,100.00
2018-09-08T21:10:37.500Z,100.00
2018-09-08T21:13:05.959Z,100.00
2018-09-08T21:15:34.145Z,100.00
2018-09-08T21:18:02.317Z,100.00
2018-09-08T21:20:30.539Z,100.00
2018-09-08T21:22:58.764Z,100.00
2018-09-08T21:25:27.849Z,100.00
2018-09-08T21:27:57.321Z,100.00
2018-09-08T21:30:26.318Z,100.00
2018-09-08T21:32:57.212Z,100.00
2018-09-08T21:35:26.865Z,100.00
2018-09-08T21:37:55.972Z,100.00
2018-09-08T21:40:25.119Z,100.00
2018-09-08T21:42:54.186Z,100.00
2018-09-08T21:45:24.089Z,100.00
2018-09-08T21:47:53.276Z,100.00
2018-09-08T21:50:22.380Z,100.00
2018-09-08T21:52:51.685Z,100.00
2018-09-08T21:55:20.865Z,100.00
2018-09-08T21:57:49.950Z,100.00
2018-09-08T22:00:19.824Z,100.00
2018-09-08T22:02:48.956Z,100.00
2018-09-08T22:05:17.889Z,100.00
2018-09-08T22:07:47.080Z,100.00
2018-09-08T22:10:16.189Z,100.00
2018-09-08T22:12:45.024Z,100.00
2018-09-08T22:15:14.056Z,100.00
2018-09-08T22:17:43.127Z,100.00
2018-09-08T22:20:12.485Z,100.00
2018-09-08T22:22:41.737Z,100.00
2018-09-08T22:25:10.611Z,100.00
2018-09-08T22:27:39.834Z,100.00
2018-09-08T22:30:09.857Z,100.00
2018-09-08T22:32:39.016Z,100.00
2018-09-08T22:35:08.067Z,100.00
2018-09-08T22:37:37.253Z,100.00
2018-09-08T22:40:06.346Z,100.00
2018-09-08T22:42:35.030Z,100.00
2018-09-08T22:45:04.199Z,100.00
2018-09-08T22:47:33.390Z,100.00
2018-09-08T22:50:02.626Z,100.00
2018-09-08T22:52:32.322Z,100.00
2018-09-08T22:55:01.336Z,100.00
2018-09-08T22:57:30.667Z,100.00
2018-09-08T22:59:59.504Z,100.00
2018-09-08T23:02:30.086Z,100.00
2018-09-08T23:04:59.205Z,100.00
2018-09-08T23:07:28.321Z,100.00
2018-09-08T23:09:56.545Z,100.00
2018-09-08T23:12:25.401Z,100.00
2018-09-08T23:14:53.728Z,100.00
2018-09-08T23:17:22.960Z,100.00
2018-09-08T23:19:51.391Z,100.00
2018-09-08T23:22:19.661Z,100.00
2018-09-08T23:24:48.231Z,100.00
2018-09-08T23:27:16.601Z,100.00
2018-09-08T23:29:45.096Z,100.00
2018-09-08T23:32:13.333Z,100.00
2018-09-08T23:34:43.033Z,100.00
2018-09-08T23:37:11.234Z,100.00
2018-09-08T23:39:39.666Z,100.00
2018-09-08T23:42:07.844Z,100.00
2018-09-08T23:44:36.060Z,100.00
2018-09-08T23:47:04.357Z,100.00
2018-09-08T23:49:32.584Z,100.00
2018-09-08T23:52:00.787Z,100.00
2018-09-08T23:54:29.041Z,100.00
2018-09-08T23:56:57.217Z,100.00
2018-09-08T23:59:25.409Z,100.00
